sensor_id;sensor_type;location;lat;lon;timestamp;P1;durP1;ratioP1;P2;durP2;ratioP2
5841;SDS011;2947;52.276;9.946;2023-08-20T00:01:06;18.90;;;11.80;;
5841;SDS011;2947;52.276;9.946;2023-08-20T00:03:34;16.35;;;10.50;;
5841;SDS011;2947;52.276;9.946;2023-08-20T00:06:00;16.25;;;10.43;;
5841;SDS011;2947;52.276;9.946;2023-08-20T00:08:29;21.05;;;12.25;;
5841;SDS011;2947;52.276;9.946;2023-08-20T00:10:54;21.05;;;12.00;;
5841;SDS011;2947;52.276;9.946;2023-08-20T00:13:20;18.30;;;11.30;;
5841;SDS011;2947;52.276;9.946;2023-08-20T00:15:46;17.42;;;11.30;;
5841;SDS011;2947;52.276;9.946;2023-08-20T00:18:12;18.92;;;12.10;;
5841;SDS011;2947;52.276;9.946;2023-08-20T00:20:38;17.25;;;11.35;;
5841;SDS011;2947;52.276;9.946;2023-08-20T00:23:05;20.85;;;11.77;;
5841;SDS011;2947;52.276;9.946;2023-08-20T00:25:31;20.35;;;13.25;;
5841;SDS011;2947;52.276;9.946;2023-08-20T00:27:57;18.15;;;11.43;;
5841;SDS011;2947;52.276;9.946;2023-08-20T00:30:23;17.20;;;11.98;;
5841;SDS011;2947;52.276;9.946;2023-08-20T00:32:49;16.27;;;10.63;;
5841;SDS011;2947;52.276;9.946;2023-08-20T00:35:15;18.70;;;12.43;;
5841;SDS011;2947;52.276;9.946;2023-08-20T00:37:40;17.70;;;11.77;;
5841;SDS011;2947;52.276;9.946;2023-08-20T00:40:06;17.35;;;11.77;;
5841;SDS011;2947;52.276;9.946;2023-08-20T00:42:34;20.90;;;11.68;;
5841;SDS011;2947;52.276;9.946;2023-08-20T00:45:00;22.88;;;12.43;;
5841;SDS011;2947;52.276;9.946;2023-08-20T00:47:26;22.52;;;12.13;;
5841;SDS011;2947;52.276;9.946;2023-08-20T00:49:53;21.75;;;12.27;;
5841;SDS011;2947;52.276;9.946;2023-08-20T00:52:19;19.65;;;12.43;;
5841;SDS011;2947;52.276;9.946;2023-08-20T00:54:47;22.10;;;12.93;;
5841;SDS011;2947;52.276;9.946;2023-08-20T00:57:14;20.40;;;12.63;;
5841;SDS011;2947;52.276;9.946;2023-08-20T00:59:44;27.83;;;14.30;;
5841;SDS011;2947;52.276;9.946;2023-08-20T01:02:14;21.45;;;13.00;;
5841;SDS011;2947;52.276;9.946;2023-08-20T01:04:41;22.27;;;14.48;;
5841;SDS011;2947;52.276;9.946;2023-08-20T01:07:14;20.83;;;13.80;;
5841;SDS011;2947;52.276;9.946;2023-08-20T01:10:15;25.25;;;14.50;;
5841;SDS011;2947;52.276;9.946;2023-08-20T01:12:50;25.70;;;14.55;;
5841;SDS011;2947;52.276;9.946;2023-08-20T01:15:17;26.40;;;15.13;;
5841;SDS011;2947;52.276;9.946;2023-08-20T01:17:43;22.60;;;14.27;;
5841;SDS011;2947;52.276;9.946;2023-08-20T01:20:11;29.65;;;15.15;;
5841;SDS011;2947;52.276;9.946;2023-08-20T01:25:28;25.27;;;15.48;;
5841;SDS011;2947;52.276;9.946;2023-08-20T01:28:18;24.60;;;15.20;;
5841;SDS011;2947;52.276;9.946;2023-08-20T01:30:53;22.73;;;15.00;;
5841;SDS011;2947;52.276;9.946;2023-08-20T01:33:21;25.40;;;14.63;;
5841;SDS011;2947;52.276;9.946;2023-08-20T01:35:49;18.92;;;14.15;;
5841;SDS011;2947;52.276;9.946;2023-08-20T01:38:18;23.23;;;14.30;;
5841;SDS011;2947;52.276;9.946;2023-08-20T01:40:44;25.25;;;14.40;;
5841;SDS011;2947;52.276;9.946;2023-08-20T01:43:10;25.55;;;14.43;;
5841;SDS011;2947;52.276;9.946;2023-08-20T01:45:36;27.60;;;15.43;;
5841;SDS011;2947;52.276;9.946;2023-08-20T01:48:02;25.30;;;14.65;;
5841;SDS011;2947;52.276;9.946;2023-08-20T01:50:28;26.70;;;14.80;;
5841;SDS011;2947;52.276;9.946;2023-08-20T01:52:55;19.20;;;14.15;;
5841;SDS011;2947;52.276;9.946;2023-08-20T01:55:20;29.70;;;14.98;;
5841;SDS011;2947;52.276;9.946;2023-08-20T01:57:46;20.92;;;14.63;;
5841;SDS011;2947;52.276;9.946;2023-08-20T02:00:12;20.58;;;13.00;;
5841;SDS011;2947;52.276;9.946;2023-08-20T02:02:38;19.88;;;12.20;;
5841;SDS011;2947;52.276;9.946;2023-08-20T02:05:04;16.08;;;11.63;;
5841;SDS011;2947;52.276;9.946;2023-08-20T02:07:30;17.08;;;11.60;;
5841;SDS011;2947;52.276;9.946;2023-08-20T02:09:56;19.65;;;12.45;;
5841;SDS011;2947;52.276;9.946;2023-08-20T02:12:22;18.63;;;12.00;;
5841;SDS011;2947;52.276;9.946;2023-08-20T02:14:47;18.77;;;11.55;;
5841;SDS011;2947;52.276;9.946;2023-08-20T02:17:13;17.77;;;11.45;;
5841;SDS011;2947;52.276;9.946;2023-08-20T02:19:39;17.45;;;11.48;;
5841;SDS011;2947;52.276;9.946;2023-08-20T02:22:05;17.92;;;11.57;;
5841;SDS011;2947;52.276;9.946;2023-08-20T02:24:31;19.40;;;11.50;;
5841;SDS011;2947;52.276;9.946;2023-08-20T02:26:56;20.77;;;12.15;;
5841;SDS011;2947;52.276;9.946;2023-08-20T02:29:22;16.40;;;11.07;;
5841;SDS011;2947;52.276;9.946;2023-08-20T02:31:48;18.17;;;11.98;;
5841;SDS011;2947;52.276;9.946;2023-08-20T02:34:13;15.80;;;11.00;;
5841;SDS011;2947;52.276;9.946;2023-08-20T02:36:39;16.30;;;10.55;;
5841;SDS011;2947;52.276;9.946;2023-08-20T02:39:05;17.60;;;9.88;;
5841;SDS011;2947;52.276;9.946;2023-08-20T02:41:33;19.05;;;11.40;;
5841;SDS011;2947;52.276;9.946;2023-08-20T02:44:00;16.35;;;11.23;;
5841;SDS011;2947;52.276;9.946;2023-08-20T02:46:27;18.65;;;11.10;;
5841;SDS011;2947;52.276;9.946;2023-08-20T02:48:53;18.17;;;11.10;;
5841;SDS011;2947;52.276;9.946;2023-08-20T02:51:19;15.93;;;10.55;;
5841;SDS011;2947;52.276;9.946;2023-08-20T02:53:45;17.02;;;10.30;;
5841;SDS011;2947;52.276;9.946;2023-08-20T02:56:10;15.93;;;10.07;;
5841;SDS011;2947;52.276;9.946;2023-08-20T02:58:36;17.08;;;9.77;;
5841;SDS011;2947;52.276;9.946;2023-08-20T03:01:02;16.00;;;10.02;;
5841;SDS011;2947;52.276;9.946;2023-08-20T03:03:27;18.20;;;10.18;;
5841;SDS011;2947;52.276;9.946;2023-08-20T03:05:53;19.42;;;10.95;;
5841;SDS011;2947;52.276;9.946;2023-08-20T03:08:19;14.85;;;9.77;;
5841;SDS011;2947;52.276;9.946;2023-08-20T03:10:45;17.58;;;10.25;;
5841;SDS011;2947;52.276;9.946;2023-08-20T03:13:11;16.92;;;11.35;;
5841;SDS011;2947;52.276;9.946;2023-08-20T03:15:36;16.08;;;9.85;;
5841;SDS011;2947;52.276;9.946;2023-08-20T03:18:02;19.30;;;11.57;;
5841;SDS011;2947;52.276;9.946;2023-08-20T03:20:28;16.85;;;10.90;;
5841;SDS011;2947;52.276;9.946;2023-08-20T03:22:56;19.30;;;9.88;;
5841;SDS011;2947;52.276;9.946;2023-08-20T03:25:22;17.35;;;10.52;;
5841;SDS011;2947;52.276;9.946;2023-08-20T03:27:49;19.10;;;10.60;;
5841;SDS011;2947;52.276;9.946;2023-08-20T03:30:16;20.35;;;10.15;;
5841;SDS011;2947;52.276;9.946;2023-08-20T03:32:42;14.07;;;9.43;;
5841;SDS011;2947;52.276;9.946;2023-08-20T03:35:07;13.70;;;8.68;;
5841;SDS011;2947;52.276;9.946;2023-08-20T03:37:33;12.20;;;8.88;;
5841;SDS011;2947;52.276;9.946;2023-08-20T03:39:59;14.45;;;8.85;;
5841;SDS011;2947;52.276;9.946;2023-08-20T03:42:25;13.90;;;8.45;;
5841;SDS011;2947;52.276;9.946;2023-08-20T03:44:50;17.45;;;8.55;;
5841;SDS011;2947;52.276;9.946;2023-08-20T03:47:16;12.48;;;8.13;;
5841;SDS011;2947;52.276;9.946;2023-08-20T03:49:45;11.90;;;8.23;;
5841;SDS011;2947;52.276;9.946;2023-08-20T03:52:13;14.40;;;8.45;;
5841;SDS011;2947;52.276;9.946;2023-08-20T03:54:38;16.23;;;7.25;;
5841;SDS011;2947;52.276;9.946;2023-08-20T03:57:04;12.43;;;7.43;;
5841;SDS011;2947;52.276;9.946;2023-08-20T03:59:30;12.02;;;8.63;;
5841;SDS011;2947;52.276;9.946;2023-08-20T04:01:56;11.15;;;7.53;;
5841;SDS011;2947;52.276;9.946;2023-08-20T04:04:22;11.80;;;7.68;;
5841;SDS011;2947;52.276;9.946;2023-08-20T04:06:48;19.77;;;8.68;;
5841;SDS011;2947;52.276;9.946;2023-08-20T04:09:14;12.75;;;6.95;;
5841;SDS011;2947;52.276;9.946;2023-08-20T04:11:39;12.68;;;8.43;;
5841;SDS011;2947;52.276;9.946;2023-08-20T04:14:05;11.23;;;7.35;;
5841;SDS011;2947;52.276;9.946;2023-08-20T04:16:31;16.67;;;8.52;;
5841;SDS011;2947;52.276;9.946;2023-08-20T04:18:56;12.80;;;7.72;;
5841;SDS011;2947;52.276;9.946;2023-08-20T04:21:22;17.52;;;7.68;;
5841;SDS011;2947;52.276;9.946;2023-08-20T04:23:48;12.55;;;7.53;;
5841;SDS011;2947;52.276;9.946;2023-08-20T04:26:13;13.95;;;7.60;;
5841;SDS011;2947;52.276;9.946;2023-08-20T04:28:39;14.95;;;7.97;;
5841;SDS011;2947;52.276;9.946;2023-08-20T04:31:05;13.63;;;7.63;;
5841;SDS011;2947;52.276;9.946;2023-08-20T04:33:30;13.15;;;7.00;;
5841;SDS011;2947;52.276;9.946;2023-08-20T04:35:56;13.80;;;7.35;;
5841;SDS011;2947;52.276;9.946;2023-08-20T04:38:22;14.68;;;7.35;;
5841;SDS011;2947;52.276;9.946;2023-08-20T04:40:48;13.15;;;7.65;;
5841;SDS011;2947;52.276;9.946;2023-08-20T04:43:14;15.52;;;7.43;;
5841;SDS011;2947;52.276;9.946;2023-08-20T04:45:40;11.70;;;6.88;;
5841;SDS011;2947;52.276;9.946;2023-08-20T04:48:06;12.30;;;7.65;;
5841;SDS011;2947;52.276;9.946;2023-08-20T04:50:33;12.98;;;7.28;;
5841;SDS011;2947;52.276;9.946;2023-08-20T04:52:59;13.18;;;7.25;;
5841;SDS011;2947;52.276;9.946;2023-08-20T04:55:25;14.88;;;8.10;;
5841;SDS011;2947;52.276;9.946;2023-08-20T04:57:52;12.52;;;7.03;;
5841;SDS011;2947;52.276;9.946;2023-08-20T05:00:18;13.95;;;6.93;;
5841;SDS011;2947;52.276;9.946;2023-08-20T05:02:44;10.10;;;6.53;;
5841;SDS011;2947;52.276;9.946;2023-08-20T05:05:10;16.02;;;6.45;;
5841;SDS011;2947;52.276;9.946;2023-08-20T05:07:36;11.50;;;6.80;;
5841;SDS011;2947;52.276;9.946;2023-08-20T05:10:02;13.52;;;7.35;;
5841;SDS011;2947;52.276;9.946;2023-08-20T05:12:28;10.57;;;6.40;;
5841;SDS011;2947;52.276;9.946;2023-08-20T05:14:54;11.77;;;6.07;;
5841;SDS011;2947;52.276;9.946;2023-08-20T05:17:20;13.23;;;5.78;;
5841;SDS011;2947;52.276;9.946;2023-08-20T05:19:45;9.30;;;5.78;;
5841;SDS011;2947;52.276;9.946;2023-08-20T05:22:11;10.82;;;5.70;;
5841;SDS011;2947;52.276;9.946;2023-08-20T05:24:37;11.75;;;5.78;;
5841;SDS011;2947;52.276;9.946;2023-08-20T05:27:07;13.32;;;5.30;;
5841;SDS011;2947;52.276;9.946;2023-08-20T05:29:35;14.00;;;6.30;;
5841;SDS011;2947;52.276;9.946;2023-08-20T05:32:02;9.38;;;5.03;;
5841;SDS011;2947;52.276;9.946;2023-08-20T05:34:28;7.82;;;4.68;;
5841;SDS011;2947;52.276;9.946;2023-08-20T05:36:54;8.15;;;5.20;;
5841;SDS011;2947;52.276;9.946;2023-08-20T05:39:20;12.50;;;5.15;;
5841;SDS011;2947;52.276;9.946;2023-08-20T05:41:46;6.88;;;4.05;;
5841;SDS011;2947;52.276;9.946;2023-08-20T05:44:11;7.90;;;4.55;;
5841;SDS011;2947;52.276;9.946;2023-08-20T05:46:37;8.95;;;4.57;;
5841;SDS011;2947;52.276;9.946;2023-08-20T05:49:05;7.35;;;4.50;;
5841;SDS011;2947;52.276;9.946;2023-08-20T05:51:31;8.85;;;4.70;;
5841;SDS011;2947;52.276;9.946;2023-08-20T05:53:57;10.38;;;5.15;;
5841;SDS011;2947;52.276;9.946;2023-08-20T05:56:22;9.00;;;4.85;;
5841;SDS011;2947;52.276;9.946;2023-08-20T05:58:48;11.32;;;4.55;;
5841;SDS011;2947;52.276;9.946;2023-08-20T06:01:14;9.35;;;4.78;;
5841;SDS011;2947;52.276;9.946;2023-08-20T06:03:39;8.70;;;4.65;;
5841;SDS011;2947;52.276;9.946;2023-08-20T06:06:05;7.93;;;4.78;;
5841;SDS011;2947;52.276;9.946;2023-08-20T06:08:31;10.15;;;4.97;;
5841;SDS011;2947;52.276;9.946;2023-08-20T06:10:56;10.95;;;5.13;;
5841;SDS011;2947;52.276;9.946;2023-08-20T06:13:22;9.60;;;5.28;;
5841;SDS011;2947;52.276;9.946;2023-08-20T06:15:48;13.02;;;5.18;;
5841;SDS011;2947;52.276;9.946;2023-08-20T06:18:14;12.05;;;4.57;;
5841;SDS011;2947;52.276;9.946;2023-08-20T06:20:39;8.52;;;5.22;;
5841;SDS011;2947;52.276;9.946;2023-08-20T06:23:06;9.43;;;4.63;;
5841;SDS011;2947;52.276;9.946;2023-08-20T06:25:31;7.88;;;5.55;;
5841;SDS011;2947;52.276;9.946;2023-08-20T06:27:57;10.68;;;5.15;;
5841;SDS011;2947;52.276;9.946;2023-08-20T06:30:23;12.57;;;5.72;;
5841;SDS011;2947;52.276;9.946;2023-08-20T06:32:48;9.88;;;5.03;;
5841;SDS011;2947;52.276;9.946;2023-08-20T06:35:14;15.15;;;5.68;;
5841;SDS011;2947;52.276;9.946;2023-08-20T06:37:40;10.25;;;5.80;;
5841;SDS011;2947;52.276;9.946;2023-08-20T06:40:06;11.73;;;5.95;;
5841;SDS011;2947;52.276;9.946;2023-08-20T06:42:32;9.65;;;5.57;;
5841;SDS011;2947;52.276;9.946;2023-08-20T06:44:58;14.07;;;6.47;;
5841;SDS011;2947;52.276;9.946;2023-08-20T06:47:24;9.95;;;5.97;;
5841;SDS011;2947;52.276;9.946;2023-08-20T06:49:50;14.27;;;6.30;;
5841;SDS011;2947;52.276;9.946;2023-08-20T06:52:16;10.32;;;5.60;;
5841;SDS011;2947;52.276;9.946;2023-08-20T06:54:42;14.23;;;6.43;;
5841;SDS011;2947;52.276;9.946;2023-08-20T06:57:07;10.48;;;5.38;;
5841;SDS011;2947;52.276;9.946;2023-08-20T06:59:33;11.48;;;4.68;;
5841;SDS011;2947;52.276;9.946;2023-08-20T07:01:59;8.77;;;4.57;;
5841;SDS011;2947;52.276;9.946;2023-08-20T07:04:25;6.68;;;4.30;;
5841;SDS011;2947;52.276;9.946;2023-08-20T07:06:51;9.88;;;4.80;;
5841;SDS011;2947;52.276;9.946;2023-08-20T07:09:16;10.65;;;4.78;;
5841;SDS011;2947;52.276;9.946;2023-08-20T07:11:42;8.77;;;4.75;;
5841;SDS011;2947;52.276;9.946;2023-08-20T07:14:08;10.45;;;5.68;;
5841;SDS011;2947;52.276;9.946;2023-08-20T07:16:34;12.73;;;4.97;;
5841;SDS011;2947;52.276;9.946;2023-08-20T07:18:59;8.30;;;4.88;;
5841;SDS011;2947;52.276;9.946;2023-08-20T07:21:25;14.23;;;6.55;;
5841;SDS011;2947;52.276;9.946;2023-08-20T07:23:51;11.52;;;6.20;;
5841;SDS011;2947;52.276;9.946;2023-08-20T07:26:16;9.65;;;5.30;;
5841;SDS011;2947;52.276;9.946;2023-08-20T07:28:42;7.47;;;4.60;;
5841;SDS011;2947;52.276;9.946;2023-08-20T07:31:23;8.93;;;5.45;;
5841;SDS011;2947;52.276;9.946;2023-08-20T07:33:51;7.95;;;4.90;;
5841;SDS011;2947;52.276;9.946;2023-08-20T07:36:19;8.90;;;5.05;;
5841;SDS011;2947;52.276;9.946;2023-08-20T07:38:46;8.35;;;4.57;;
5841;SDS011;2947;52.276;9.946;2023-08-20T07:41:13;12.75;;;5.43;;
5841;SDS011;2947;52.276;9.946;2023-08-20T07:43:39;7.85;;;5.07;;
5841;SDS011;2947;52.276;9.946;2023-08-20T07:46:06;9.85;;;4.10;;
5841;SDS011;2947;52.276;9.946;2023-08-20T07:48:33;8.20;;;3.75;;
5841;SDS011;2947;52.276;9.946;2023-08-20T07:51:01;9.85;;;4.95;;
5841;SDS011;2947;52.276;9.946;2023-08-20T07:53:27;6.85;;;3.67;;
5841;SDS011;2947;52.276;9.946;2023-08-20T07:55:54;11.48;;;4.75;;
5841;SDS011;2947;52.276;9.946;2023-08-20T07:58:20;8.20;;;4.70;;
5841;SDS011;2947;52.276;9.946;2023-08-20T08:00:46;9.45;;;4.80;;
5841;SDS011;2947;52.276;9.946;2023-08-20T08:03:12;11.77;;;5.35;;
5841;SDS011;2947;52.276;9.946;2023-08-20T08:05:39;9.70;;;5.13;;
5841;SDS011;2947;52.276;9.946;2023-08-20T08:08:06;8.85;;;4.15;;
5841;SDS011;2947;52.276;9.946;2023-08-20T08:10:32;5.97;;;3.70;;
5841;SDS011;2947;52.276;9.946;2023-08-20T08:12:57;9.68;;;3.90;;
5841;SDS011;2947;52.276;9.946;2023-08-20T08:15:23;11.57;;;3.85;;
5841;SDS011;2947;52.276;9.946;2023-08-20T08:17:49;6.72;;;3.05;;
5841;SDS011;2947;52.276;9.946;2023-08-20T08:20:14;11.20;;;3.90;;
5841;SDS011;2947;52.276;9.946;2023-08-20T08:22:41;8.02;;;3.38;;
5841;SDS011;2947;52.276;9.946;2023-08-20T08:25:07;9.48;;;3.90;;
5841;SDS011;2947;52.276;9.946;2023-08-20T08:27:33;8.02;;;3.88;;
5841;SDS011;2947;52.276;9.946;2023-08-20T08:29:58;6.90;;;4.00;;
5841;SDS011;2947;52.276;9.946;2023-08-20T08:32:24;6.75;;;3.40;;
5841;SDS011;2947;52.276;9.946;2023-08-20T08:34:50;5.28;;;3.20;;
5841;SDS011;2947;52.276;9.946;2023-08-20T08:37:16;6.90;;;3.70;;
5841;SDS011;2947;52.276;9.946;2023-08-20T08:39:41;6.97;;;3.47;;
5841;SDS011;2947;52.276;9.946;2023-08-20T08:42:07;8.38;;;3.75;;
5841;SDS011;2947;52.276;9.946;2023-08-20T08:44:36;4.90;;;3.30;;
5841;SDS011;2947;52.276;9.946;2023-08-20T08:47:03;5.20;;;2.90;;
5841;SDS011;2947;52.276;9.946;2023-08-20T08:49:30;7.18;;;3.33;;
5841;SDS011;2947;52.276;9.946;2023-08-20T08:51:59;5.10;;;2.97;;
5841;SDS011;2947;52.276;9.946;2023-08-20T08:54:26;6.85;;;3.67;;
5841;SDS011;2947;52.276;9.946;2023-08-20T08:56:52;8.77;;;3.08;;
5841;SDS011;2947;52.276;9.946;2023-08-20T08:59:18;7.68;;;3.22;;
5841;SDS011;2947;52.276;9.946;2023-08-20T09:01:45;5.53;;;2.75;;
5841;SDS011;2947;52.276;9.946;2023-08-20T09:04:11;11.38;;;3.40;;
5841;SDS011;2947;52.276;9.946;2023-08-20T09:06:44;6.07;;;3.35;;
5841;SDS011;2947;52.276;9.946;2023-08-20T09:09:14;4.65;;;2.58;;
5841;SDS011;2947;52.276;9.946;2023-08-20T09:11:42;6.10;;;2.83;;
5841;SDS011;2947;52.276;9.946;2023-08-20T09:14:08;7.22;;;3.25;;
5841;SDS011;2947;52.276;9.946;2023-08-20T09:16:45;6.45;;;3.38;;
5841;SDS011;2947;52.276;9.946;2023-08-20T09:19:12;6.35;;;3.05;;
5841;SDS011;2947;52.276;9.946;2023-08-20T09:21:37;6.13;;;2.75;;
5841;SDS011;2947;52.276;9.946;2023-08-20T09:24:03;6.13;;;2.85;;
5841;SDS011;2947;52.276;9.946;2023-08-20T09:26:30;7.15;;;3.05;;
5841;SDS011;2947;52.276;9.946;2023-08-20T09:28:56;4.75;;;2.20;;
5841;SDS011;2947;52.276;9.946;2023-08-20T09:31:36;7.50;;;2.78;;
5841;SDS011;2947;52.276;9.946;2023-08-20T09:34:03;5.20;;;2.42;;
5841;SDS011;2947;52.276;9.946;2023-08-20T09:36:33;7.05;;;3.10;;
5841;SDS011;2947;52.276;9.946;2023-08-20T09:39:02;6.78;;;3.03;;
5841;SDS011;2947;52.276;9.946;2023-08-20T09:41:29;5.63;;;2.60;;
5841;SDS011;2947;52.276;9.946;2023-08-20T09:43:56;7.10;;;2.78;;
5841;SDS011;2947;52.276;9.946;2023-08-20T09:46:27;4.38;;;2.33;;
5841;SDS011;2947;52.276;9.946;2023-08-20T09:48:56;5.97;;;2.30;;
5841;SDS011;2947;52.276;9.946;2023-08-20T09:51:26;6.25;;;2.50;;
5841;SDS011;2947;52.276;9.946;2023-08-20T09:56:39;6.38;;;2.42;;
5841;SDS011;2947;52.276;9.946;2023-08-20T09:59:09;12.38;;;2.88;;
5841;SDS011;2947;52.276;9.946;2023-08-20T10:01:35;6.43;;;2.33;;
5841;SDS011;2947;52.276;9.946;2023-08-20T10:04:02;7.68;;;2.92;;
5841;SDS011;2947;52.276;9.946;2023-08-20T10:06:29;5.32;;;2.30;;
5841;SDS011;2947;52.276;9.946;2023-08-20T10:08:57;5.47;;;2.90;;
5841;SDS011;2947;52.276;9.946;2023-08-20T10:11:24;3.40;;;2.00;;
5841;SDS011;2947;52.276;9.946;2023-08-20T10:13:50;5.43;;;2.13;;
5841;SDS011;2947;52.276;9.946;2023-08-20T10:16:18;5.10;;;2.30;;
5841;SDS011;2947;52.276;9.946;2023-08-20T10:18:46;8.18;;;2.58;;
5841;SDS011;2947;52.276;9.946;2023-08-20T10:21:12;5.20;;;2.70;;
5841;SDS011;2947;52.276;9.946;2023-08-20T10:23:41;6.50;;;2.38;;
5841;SDS011;2947;52.276;9.946;2023-08-20T10:26:13;4.68;;;2.10;;
5841;SDS011;2947;52.276;9.946;2023-08-20T10:28:41;4.47;;;1.80;;
5841;SDS011;2947;52.276;9.946;2023-08-20T10:31:17;4.55;;;2.08;;
5841;SDS011;2947;52.276;9.946;2023-08-20T10:33:55;6.18;;;1.88;;
5841;SDS011;2947;52.276;9.946;2023-08-20T10:36:23;3.72;;;1.73;;
5841;SDS011;2947;52.276;9.946;2023-08-20T10:38:56;4.15;;;2.00;;
5841;SDS011;2947;52.276;9.946;2023-08-20T10:41:26;3.83;;;1.73;;
5841;SDS011;2947;52.276;9.946;2023-08-20T10:43:57;3.92;;;2.13;;
5841;SDS011;2947;52.276;9.946;2023-08-20T10:46:24;4.28;;;2.00;;
5841;SDS011;2947;52.276;9.946;2023-08-20T10:48:58;5.95;;;2.53;;
5841;SDS011;2947;52.276;9.946;2023-08-20T10:51:27;5.38;;;2.08;;
5841;SDS011;2947;52.276;9.946;2023-08-20T10:56:42;4.88;;;2.00;;
5841;SDS011;2947;52.276;9.946;2023-08-20T10:59:17;4.53;;;1.83;;
5841;SDS011;2947;52.276;9.946;2023-08-20T11:01:48;4.75;;;1.77;;
5841;SDS011;2947;52.276;9.946;2023-08-20T11:04:15;5.22;;;2.28;;
5841;SDS011;2947;52.276;9.946;2023-08-20T11:06:46;3.72;;;1.83;;
5841;SDS011;2947;52.276;9.946;2023-08-20T11:09:15;4.22;;;1.92;;
5841;SDS011;2947;52.276;9.946;2023-08-20T11:11:41;3.97;;;1.80;;
5841;SDS011;2947;52.276;9.946;2023-08-20T11:14:11;6.72;;;2.45;;
5841;SDS011;2947;52.276;9.946;2023-08-20T11:16:40;4.03;;;1.70;;
5841;SDS011;2947;52.276;9.946;2023-08-20T11:19:08;4.13;;;2.03;;
5841;SDS011;2947;52.276;9.946;2023-08-20T11:21:35;4.47;;;2.08;;
5841;SDS011;2947;52.276;9.946;2023-08-20T11:24:02;3.75;;;1.80;;
5841;SDS011;2947;52.276;9.946;2023-08-20T11:26:29;3.92;;;2.45;;
5841;SDS011;2947;52.276;9.946;2023-08-20T11:28:55;6.03;;;2.22;;
5841;SDS011;2947;52.276;9.946;2023-08-20T11:31:21;6.18;;;2.35;;
5841;SDS011;2947;52.276;9.946;2023-08-20T11:33:47;8.02;;;3.95;;
5841;SDS011;2947;52.276;9.946;2023-08-20T11:36:15;5.00;;;2.53;;
5841;SDS011;2947;52.276;9.946;2023-08-20T11:38:48;3.13;;;1.52;;
5841;SDS011;2947;52.276;9.946;2023-08-20T11:41:19;3.53;;;1.33;;
5841;SDS011;2947;52.276;9.946;2023-08-20T11:43:50;3.25;;;1.50;;
5841;SDS011;2947;52.276;9.946;2023-08-20T11:46:18;5.00;;;1.38;;
5841;SDS011;2947;52.276;9.946;2023-08-20T11:49:04;3.35;;;1.58;;
5841;SDS011;2947;52.276;9.946;2023-08-20T11:51:38;3.67;;;1.70;;
5841;SDS011;2947;52.276;9.946;2023-08-20T11:54:09;3.10;;;1.58;;
5841;SDS011;2947;52.276;9.946;2023-08-20T11:56:50;3.30;;;1.50;;
5841;SDS011;2947;52.276;9.946;2023-08-20T11:59:17;4.38;;;1.42;;
5841;SDS011;2947;52.276;9.946;2023-08-20T12:01:51;6.40;;;2.00;;
5841;SDS011;2947;52.276;9.946;2023-08-20T12:04:25;3.97;;;1.50;;
5841;SDS011;2947;52.276;9.946;2023-08-20T12:07:04;5.05;;;2.03;;
5841;SDS011;2947;52.276;9.946;2023-08-20T12:09:33;5.95;;;1.88;;
5841;SDS011;2947;52.276;9.946;2023-08-20T12:12:00;9.10;;;2.10;;
5841;SDS011;2947;52.276;9.946;2023-08-20T12:14:26;4.20;;;1.92;;
5841;SDS011;2947;52.276;9.946;2023-08-20T12:16:55;5.10;;;2.83;;
5841;SDS011;2947;52.276;9.946;2023-08-20T12:19:21;5.07;;;1.80;;
5841;SDS011;2947;52.276;9.946;2023-08-20T12:21:47;5.68;;;2.42;;
5841;SDS011;2947;52.276;9.946;2023-08-20T12:24:14;5.00;;;1.88;;
5841;SDS011;2947;52.276;9.946;2023-08-20T12:26:39;3.00;;;1.65;;
5841;SDS011;2947;52.276;9.946;2023-08-20T12:29:06;3.97;;;2.08;;
5841;SDS011;2947;52.276;9.946;2023-08-20T12:31:32;4.75;;;1.88;;
5841;SDS011;2947;52.276;9.946;2023-08-20T12:33:58;4.97;;;2.38;;
5841;SDS011;2947;52.276;9.946;2023-08-20T12:36:25;3.78;;;2.40;;
5841;SDS011;2947;52.276;9.946;2023-08-20T12:38:51;4.75;;;2.08;;
5841;SDS011;2947;52.276;9.946;2023-08-20T12:41:17;5.68;;;2.47;;
5841;SDS011;2947;52.276;9.946;2023-08-20T12:43:46;5.47;;;2.20;;
5841;SDS011;2947;52.276;9.946;2023-08-20T12:46:12;4.10;;;2.47;;
5841;SDS011;2947;52.276;9.946;2023-08-20T12:48:38;5.80;;;2.20;;
5841;SDS011;2947;52.276;9.946;2023-08-20T12:51:05;6.53;;;2.80;;
5841;SDS011;2947;52.276;9.946;2023-08-20T12:53:31;5.38;;;2.58;;
5841;SDS011;2947;52.276;9.946;2023-08-20T12:55:57;5.70;;;2.30;;
5841;SDS011;2947;52.276;9.946;2023-08-20T12:58:23;3.80;;;2.30;;
5841;SDS011;2947;52.276;9.946;2023-08-20T13:00:49;3.90;;;2.22;;
5841;SDS011;2947;52.276;9.946;2023-08-20T13:03:16;4.25;;;2.10;;
5841;SDS011;2947;52.276;9.946;2023-08-20T13:05:43;4.25;;;2.00;;
5841;SDS011;2947;52.276;9.946;2023-08-20T13:08:09;5.15;;;3.10;;
5841;SDS011;2947;52.276;9.946;2023-08-20T13:10:38;5.28;;;2.95;;
5841;SDS011;2947;52.276;9.946;2023-08-20T13:13:08;4.38;;;2.50;;
5841;SDS011;2947;52.276;9.946;2023-08-20T13:15:36;4.43;;;3.05;;
5841;SDS011;2947;52.276;9.946;2023-08-20T13:18:02;6.40;;;3.33;;
5841;SDS011;2947;52.276;9.946;2023-08-20T13:20:29;5.60;;;2.90;;
5841;SDS011;2947;52.276;9.946;2023-08-20T13:22:55;4.70;;;2.85;;
5841;SDS011;2947;52.276;9.946;2023-08-20T13:25:20;4.45;;;3.38;;
5841;SDS011;2947;52.276;9.946;2023-08-20T13:27:46;4.28;;;2.88;;
5841;SDS011;2947;52.276;9.946;2023-08-20T13:30:12;8.10;;;2.70;;
5841;SDS011;2947;52.276;9.946;2023-08-20T13:32:38;3.75;;;2.60;;
5841;SDS011;2947;52.276;9.946;2023-08-20T13:35:05;9.85;;;3.60;;
5841;SDS011;2947;52.276;9.946;2023-08-20T13:37:33;6.57;;;3.40;;
5841;SDS011;2947;52.276;9.946;2023-08-20T13:39:59;7.00;;;3.35;;
5841;SDS011;2947;52.276;9.946;2023-08-20T13:42:25;6.30;;;3.25;;
5841;SDS011;2947;52.276;9.946;2023-08-20T13:44:51;5.80;;;3.80;;
5841;SDS011;2947;52.276;9.946;2023-08-20T13:47:17;7.18;;;3.60;;
5841;SDS011;2947;52.276;9.946;2023-08-20T13:49:43;4.85;;;3.88;;
5841;SDS011;2947;52.276;9.946;2023-08-20T13:52:09;5.78;;;3.70;;
5841;SDS011;2947;52.276;9.946;2023-08-20T13:54:35;5.85;;;3.70;;
5841;SDS011;2947;52.276;9.946;2023-08-20T13:57:02;4.82;;;3.33;;
5841;SDS011;2947;52.276;9.946;2023-08-20T13:59:29;4.95;;;3.20;;
5841;SDS011;2947;52.276;9.946;2023-08-20T14:01:55;10.57;;;3.22;;
5841;SDS011;2947;52.276;9.946;2023-08-20T14:04:21;4.35;;;2.90;;
5841;SDS011;2947;52.276;9.946;2023-08-20T14:06:47;6.03;;;3.55;;
5841;SDS011;2947;52.276;9.946;2023-08-20T14:09:13;5.43;;;3.50;;
5841;SDS011;2947;52.276;9.946;2023-08-20T14:11:39;9.00;;;3.35;;
5841;SDS011;2947;52.276;9.946;2023-08-20T14:14:05;5.68;;;3.10;;
5841;SDS011;2947;52.276;9.946;2023-08-20T14:16:31;5.57;;;3.08;;
5841;SDS011;2947;52.276;9.946;2023-08-20T14:18:57;8.27;;;3.80;;
5841;SDS011;2947;52.276;9.946;2023-08-20T14:21:22;9.27;;;3.38;;
5841;SDS011;2947;52.276;9.946;2023-08-20T14:23:48;6.43;;;3.47;;
5841;SDS011;2947;52.276;9.946;2023-08-20T14:26:14;4.93;;;3.55;;
5841;SDS011;2947;52.276;9.946;2023-08-20T14:28:40;5.80;;;3.50;;
5841;SDS011;2947;52.276;9.946;2023-08-20T14:31:08;5.35;;;3.50;;
5841;SDS011;2947;52.276;9.946;2023-08-20T14:33:35;6.13;;;3.25;;
5841;SDS011;2947;52.276;9.946;2023-08-20T14:36:00;16.02;;;3.95;;
5841;SDS011;2947;52.276;9.946;2023-08-20T14:38:27;6.70;;;2.97;;
5841;SDS011;2947;52.276;9.946;2023-08-20T14:40:58;8.98;;;3.58;;
5841;SDS011;2947;52.276;9.946;2023-08-20T14:43:25;7.07;;;3.30;;
5841;SDS011;2947;52.276;9.946;2023-08-20T14:45:51;13.43;;;3.45;;
5841;SDS011;2947;52.276;9.946;2023-08-20T14:48:16;10.73;;;3.30;;
5841;SDS011;2947;52.276;9.946;2023-08-20T14:50:42;16.30;;;3.80;;
5841;SDS011;2947;52.276;9.946;2023-08-20T14:53:08;10.15;;;3.88;;
5841;SDS011;2947;52.276;9.946;2023-08-20T14:55:35;12.98;;;3.63;;
5841;SDS011;2947;52.276;9.946;2023-08-20T14:58:01;25.60;;;4.38;;
5841;SDS011;2947;52.276;9.946;2023-08-20T15:00:29;4.30;;;2.90;;
5841;SDS011;2947;52.276;9.946;2023-08-20T15:02:57;53.45;;;6.65;;
5841;SDS011;2947;52.276;9.946;2023-08-20T15:05:23;6.97;;;4.47;;
5841;SDS011;2947;52.276;9.946;2023-08-20T15:07:49;18.33;;;4.50;;
5841;SDS011;2947;52.276;9.946;2023-08-20T15:10:14;16.10;;;3.85;;
5841;SDS011;2947;52.276;9.946;2023-08-20T15:12:40;8.68;;;3.35;;